sensor_id;sensor_type;location;lat;lon;timestamp;temperature;humidity
69084;SHT31;56185;48.526;9.044;2023-12-20T00:02:19;6.27;80.10
69084;SHT31;56185;48.526;9.044;2023-12-20T00:04:44;6.21;80.43
69084;SHT31;56185;48.526;9.044;2023-12-20T00:07:09;6.14;80.42
69084;SHT31;56185;48.526;9.044;2023-12-20T00:09:35;6.17;79.98
69084;SHT31;56185;48.526;9.044;2023-12-20T00:12:00;6.09;79.93
69084;SHT31;56185;48.526;9.044;2023-12-20T00:14:25;6.20;79.51
69084;SHT31;56185;48.526;9.044;2023-12-20T00:16:50;6.13;79.30
69084;SHT31;56185;48.526;9.044;2023-12-20T00:19:16;6.21;79.22
69084;SHT31;56185;48.526;9.044;2023-12-20T00:21:41;6.21;79.17
69084;SHT31;56185;48.526;9.044;2023-12-20T00:24:06;6.23;79.08
69084;SHT31;56185;48.526;9.044;2023-12-20T00:26:31;6.25;78.98
69084;SHT31;56185;48.526;9.044;2023-12-20T00:28:57;6.25;79.00
69084;SHT31;56185;48.526;9.044;2023-12-20T00:31:22;6.25;79.15
69084;SHT31;56185;48.526;9.044;2023-12-20T00:33:47;6.21;79.16
69084;SHT31;56185;48.526;9.044;2023-12-20T00:36:12;6.16;79.21
69084;SHT31;56185;48.526;9.044;2023-12-20T00:38:38;6.31;78.85
69084;SHT31;56185;48.526;9.044;2023-12-20T00:41:03;6.30;78.99
69084;SHT31;56185;48.526;9.044;2023-12-20T00:43:28;6.28;79.23
69084;SHT31;56185;48.526;9.044;2023-12-20T00:45:53;6.30;79.30
69084;SHT31;56185;48.526;9.044;2023-12-20T00:48:19;6.28;79.39
69084;SHT31;56185;48.526;9.044;2023-12-20T00:50:44;6.30;79.25
69084;SHT31;56185;48.526;9.044;2023-12-20T00:53:09;6.34;79.30
69084;SHT31;56185;48.526;9.044;2023-12-20T00:55:34;6.34;79.39
69084;SHT31;56185;48.526;9.044;2023-12-20T00:58:02;6.34;79.39
69084;SHT31;56185;48.526;9.044;2023-12-20T01:00:27;6.23;79.99
69084;SHT31;56185;48.526;9.044;2023-12-20T01:02:52;6.27;80.30
69084;SHT31;56185;48.526;9.044;2023-12-20T01:05:18;6.20;80.82
69084;SHT31;56185;48.526;9.044;2023-12-20T01:07:43;6.17;80.79
69084;SHT31;56185;48.526;9.044;2023-12-20T01:10:09;6.16;81.52
69084;SHT31;56185;48.526;9.044;2023-12-20T01:12:36;6.25;81.40
69084;SHT31;56185;48.526;9.044;2023-12-20T01:15:01;6.04;82.06
69084;SHT31;56185;48.526;9.044;2023-12-20T01:17:26;6.17;82.51
69084;SHT31;56185;48.526;9.044;2023-12-20T01:19:52;6.07;83.02
69084;SHT31;56185;48.526;9.044;2023-12-20T01:22:17;6.18;83.39
69084;SHT31;56185;48.526;9.044;2023-12-20T01:24:42;6.11;83.97
69084;SHT31;56185;48.526;9.044;2023-12-20T01:27:07;5.99;85.38
69084;SHT31;56185;48.526;9.044;2023-12-20T01:29:33;6.17;85.60
69084;SHT31;56185;48.526;9.044;2023-12-20T01:31:58;6.17;85.64
69084;SHT31;56185;48.526;9.044;2023-12-20T01:34:23;6.14;86.60
69084;SHT31;56185;48.526;9.044;2023-12-20T01:36:48;6.03;87.38
69084;SHT31;56185;48.526;9.044;2023-12-20T01:39:13;6.02;87.71
69084;SHT31;56185;48.526;9.044;2023-12-20T01:41:39;6.06;87.50
69084;SHT31;56185;48.526;9.044;2023-12-20T01:44:04;5.97;88.46
69084;SHT31;56185;48.526;9.044;2023-12-20T01:46:30;6.03;88.51
69084;SHT31;56185;48.526;9.044;2023-12-20T01:48:55;6.03;88.93
69084;SHT31;56185;48.526;9.044;2023-12-20T01:51:21;6.06;88.53
69084;SHT31;56185;48.526;9.044;2023-12-20T01:53:46;6.09;88.82
69084;SHT31;56185;48.526;9.044;2023-12-20T01:56:12;6.07;88.91
69084;SHT31;56185;48.526;9.044;2023-12-20T01:58:44;6.09;88.82
69084;SHT31;56185;48.526;9.044;2023-12-20T02:01:11;6.09;88.99
69084;SHT31;56185;48.526;9.044;2023-12-20T02:03:36;6.07;89.34
69084;SHT31;56185;48.526;9.044;2023-12-20T02:06:03;6.10;89.29
69084;SHT31;56185;48.526;9.044;2023-12-20T02:08:28;6.10;88.80
69084;SHT31;56185;48.526;9.044;2023-12-20T02:10:55;6.09;89.08
69084;SHT31;56185;48.526;9.044;2023-12-20T02:13:20;6.07;88.79
69084;SHT31;56185;48.526;9.044;2023-12-20T02:15:45;6.13;88.65
69084;SHT31;56185;48.526;9.044;2023-12-20T02:18:11;6.04;89.25
69084;SHT31;56185;48.526;9.044;2023-12-20T02:20:36;6.03;89.49
69084;SHT31;56185;48.526;9.044;2023-12-20T02:23:01;6.02;89.59
69084;SHT31;56185;48.526;9.044;2023-12-20T02:25:26;5.99;89.61
69084;SHT31;56185;48.526;9.044;2023-12-20T02:27:52;6.00;89.47
69084;SHT31;56185;48.526;9.044;2023-12-20T02:30:17;5.94;90.07
69084;SHT31;56185;48.526;9.044;2023-12-20T02:32:42;6.02;89.79
69084;SHT31;56185;48.526;9.044;2023-12-20T02:35:08;6.07;89.86
69084;SHT31;56185;48.526;9.044;2023-12-20T02:37:33;6.00;89.86
69084;SHT31;56185;48.526;9.044;2023-12-20T02:39:58;6.02;90.14
69084;SHT31;56185;48.526;9.044;2023-12-20T02:42:23;5.99;90.10
69084;SHT31;56185;48.526;9.044;2023-12-20T02:44:49;6.03;90.13
69084;SHT31;56185;48.526;9.044;2023-12-20T02:47:14;6.02;90.08
69084;SHT31;56185;48.526;9.044;2023-12-20T02:49:39;6.02;89.72
69084;SHT31;56185;48.526;9.044;2023-12-20T02:52:04;6.04;89.66
69084;SHT31;56185;48.526;9.044;2023-12-20T02:54:30;6.00;89.79
69084;SHT31;56185;48.526;9.044;2023-12-20T02:56:55;6.02;89.86
69084;SHT31;56185;48.526;9.044;2023-12-20T02:59:20;6.02;89.70
69084;SHT31;56185;48.526;9.044;2023-12-20T03:01:46;6.02;89.69
69084;SHT31;56185;48.526;9.044;2023-12-20T03:04:11;6.04;89.52
69084;SHT31;56185;48.526;9.044;2023-12-20T03:06:36;5.99;89.90
69084;SHT31;56185;48.526;9.044;2023-12-20T03:09:02;6.04;89.54
69084;SHT31;56185;48.526;9.044;2023-12-20T03:11:27;6.00;89.99
69084;SHT31;56185;48.526;9.044;2023-12-20T13:12:14;6.23;72.16
69084;SHT31;56185;48.526;9.044;2023-12-20T13:14:46;6.23;71.76
69084;SHT31;56185;48.526;9.044;2023-12-20T13:17:12;6.17;71.51
69084;SHT31;56185;48.526;9.044;2023-12-20T13:19:37;6.31;71.92
69084;SHT31;56185;48.526;9.044;2023-12-20T13:22:06;6.33;71.79
69084;SHT31;56185;48.526;9.044;2023-12-20T13:24:31;6.48;71.84
69084;SHT31;56185;48.526;9.044;2023-12-20T13:26:56;6.46;71.32
69084;SHT31;56185;48.526;9.044;2023-12-20T13:29:22;6.56;71.30
69084;SHT31;56185;48.526;9.044;2023-12-20T13:31:47;6.61;72.25
69084;SHT31;56185;48.526;9.044;2023-12-20T13:34:12;6.69;70.70
69084;SHT31;56185;48.526;9.044;2023-12-20T13:36:40;6.78;71.23
69084;SHT31;56185;48.526;9.044;2023-12-20T13:39:05;6.75;70.85
69084;SHT31;56185;48.526;9.044;2023-12-20T13:41:31;6.79;71.62
69084;SHT31;56185;48.526;9.044;2023-12-20T13:43:56;6.82;70.46
69084;SHT31;56185;48.526;9.044;2023-12-20T13:46:21;6.89;70.41
69084;SHT31;56185;48.526;9.044;2023-12-20T13:48:47;6.72;71.16
69084;SHT31;56185;48.526;9.044;2023-12-20T13:51:12;6.74;70.50
69084;SHT31;56185;48.526;9.044;2023-12-20T13:53:37;6.75;70.80
69084;SHT31;56185;48.526;9.044;2023-12-20T13:56:03;6.81;71.39
69084;SHT31;56185;48.526;9.044;2023-12-20T13:58:28;6.67;71.78
69084;SHT31;56185;48.526;9.044;2023-12-20T14:00:54;6.59;70.62
69084;SHT31;56185;48.526;9.044;2023-12-20T14:03:19;6.61;69.32
69084;SHT31;56185;48.526;9.044;2023-12-20T14:05:47;6.52;70.74
69084;SHT31;56185;48.526;9.044;2023-12-20T14:08:12;6.52;69.77
69084;SHT31;56185;48.526;9.044;2023-12-20T14:10:38;6.48;70.24
69084;SHT31;56185;48.526;9.044;2023-12-20T14:13:03;6.61;70.86
69084;SHT31;56185;48.526;9.044;2023-12-20T14:15:28;6.52;70.74
69084;SHT31;56185;48.526;9.044;2023-12-20T14:17:54;6.55;70.42
69084;SHT31;56185;48.526;9.044;2023-12-20T14:20:19;6.41;71.10
69084;SHT31;56185;48.526;9.044;2023-12-20T14:22:44;6.48;70.84
69084;SHT31;56185;48.526;9.044;2023-12-20T14:25:13;6.41;71.78
69084;SHT31;56185;48.526;9.044;2023-12-20T14:27:39;6.31;72.03
69084;SHT31;56185;48.526;9.044;2023-12-20T14:30:05;6.28;72.59
69084;SHT31;56185;48.526;9.044;2023-12-20T14:32:31;6.21;72.07
69084;SHT31;56185;48.526;9.044;2023-12-20T14:34:57;6.06;73.41
69084;SHT31;56185;48.526;9.044;2023-12-20T14:37:22;6.00;74.01
69084;SHT31;56185;48.526;9.044;2023-12-20T14:39:47;5.89;74.79
69084;SHT31;56185;48.526;9.044;2023-12-20T14:42:12;6.02;75.21
69084;SHT31;56185;48.526;9.044;2023-12-20T14:44:37;5.86;75.44
69084;SHT31;56185;48.526;9.044;2023-12-20T14:47:03;5.92;75.43
69084;SHT31;56185;48.526;9.044;2023-12-20T14:49:29;5.94;75.94
69084;SHT31;56185;48.526;9.044;2023-12-20T14:51:54;5.85;76.73
69084;SHT31;56185;48.526;9.044;2023-12-20T14:54:19;5.69;77.12
69084;SHT31;56185;48.526;9.044;2023-12-20T14:56:44;5.76;78.21
69084;SHT31;56185;48.526;9.044;2023-12-20T14:59:10;5.70;78.25
69084;SHT31;56185;48.526;9.044;2023-12-20T15:01:35;5.72;78.49
69084;SHT31;56185;48.526;9.044;2023-12-20T15:04:00;5.60;78.77
69084;SHT31;56185;48.526;9.044;2023-12-20T15:06:25;5.60;78.87
69084;SHT31;56185;48.526;9.044;2023-12-20T15:08:50;5.54;78.35
69084;SHT31;56185;48.526;9.044;2023-12-20T15:11:16;5.56;78.37
69084;SHT31;56185;48.526;9.044;2023-12-20T15:13:41;5.52;78.54
69084;SHT31;56185;48.526;9.044;2023-12-20T15:16:06;5.45;78.23
69084;SHT31;56185;48.526;9.044;2023-12-20T15:18:31;5.48;78.77
69084;SHT31;56185;48.526;9.044;2023-12-20T15:20:57;5.38;78.73
69084;SHT31;56185;48.526;9.044;2023-12-20T15:23:23;5.45;78.03
69084;SHT31;56185;48.526;9.044;2023-12-20T15:25:48;5.46;78.61
69084;SHT31;56185;48.526;9.044;2023-12-20T15:28:13;5.42;78.73
69084;SHT31;56185;48.526;9.044;2023-12-20T15:30:38;5.48;78.75
69084;SHT31;56185;48.526;9.044;2023-12-20T15:33:04;5.46;78.60
69084;SHT31;56185;48.526;9.044;2023-12-20T15:35:29;5.51;78.33
69084;SHT31;56185;48.526;9.044;2023-12-20T15:37:54;5.49;78.12
69084;SHT31;56185;48.526;9.044;2023-12-20T15:40:21;5.38;79.24
69084;SHT31;56185;48.526;9.044;2023-12-20T15:42:46;5.34;78.76
69084;SHT31;56185;48.526;9.044;2023-12-20T15:45:11;5.30;79.06
69084;SHT31;56185;48.526;9.044;2023-12-20T15:47:36;5.20;78.75
69084;SHT31;56185;48.526;9.044;2023-12-20T15:50:02;5.10;78.84
69084;SHT31;56185;48.526;9.044;2023-12-20T15:52:28;5.18;79.46
69084;SHT31;56185;48.526;9.044;2023-12-20T15:54:53;5.15;79.39
69084;SHT31;56185;48.526;9.044;2023-12-20T15:57:18;5.28;80.21
69084;SHT31;56185;48.526;9.044;2023-12-20T15:59:44;5.23;79.11
69084;SHT31;56185;48.526;9.044;2023-12-20T16:02:09;5.24;79.25
69084;SHT31;56185;48.526;9.044;2023-12-20T16:04:34;5.17;79.24
69084;SHT31;56185;48.526;9.044;2023-12-20T16:07:00;5.20;79.26
69084;SHT31;56185;48.526;9.044;2023-12-20T16:09:25;5.25;78.71
69084;SHT31;56185;48.526;9.044;2023-12-20T16:11:50;5.23;78.61
69084;SHT31;56185;48.526;9.044;2023-12-20T16:14:15;5.18;79.00
69084;SHT31;56185;48.526;9.044;2023-12-20T16:16:41;5.20;78.99
69084;SHT31;56185;48.526;9.044;2023-12-20T16:19:06;5.17;79.47
69084;SHT31;56185;48.526;9.044;2023-12-20T16:21:31;5.25;79.01
69084;SHT31;56185;48.526;9.044;2023-12-20T16:23:56;5.27;78.63
69084;SHT31;56185;48.526;9.044;2023-12-20T16:26:22;5.30;79.18
69084;SHT31;56185;48.526;9.044;2023-12-20T16:28:47;5.18;79.01
69084;SHT31;56185;48.526;9.044;2023-12-20T16:31:12;5.17;78.81
69084;SHT31;56185;48.526;9.044;2023-12-20T16:33:38;5.08;79.29
69084;SHT31;56185;48.526;9.044;2023-12-20T16:36:03;5.08;79.29
69084;SHT31;56185;48.526;9.044;2023-12-20T16:38:28;5.11;79.36
69084;SHT31;56185;48.526;9.044;2023-12-20T16:40:54;5.15;79.02
69084;SHT31;56185;48.526;9.044;2023-12-20T16:43:19;5.25;79.70
69084;SHT31;56185;48.526;9.044;2023-12-20T16:45:44;5.21;78.85
69084;SHT31;56185;48.526;9.044;2023-12-20T16:48:09;5.20;78.81
69084;SHT31;56185;48.526;9.044;2023-12-20T16:50:34;5.23;78.97
69084;SHT31;56185;48.526;9.044;2023-12-20T16:53:00;5.18;78.89
69084;SHT31;56185;48.526;9.044;2023-12-20T16:55:25;5.18;78.87
69084;SHT31;56185;48.526;9.044;2023-12-20T16:57:50;5.21;78.81
69084;SHT31;56185;48.526;9.044;2023-12-20T17:00:16;5.20;78.70
69084;SHT31;56185;48.526;9.044;2023-12-20T17:02:41;5.14;78.94
69084;SHT31;56185;48.526;9.044;2023-12-20T17:05:07;5.13;78.96
69084;SHT31;56185;48.526;9.044;2023-12-20T17:07:32;5.14;79.27
69084;SHT31;56185;48.526;9.044;2023-12-20T17:09:57;5.08;79.56
69084;SHT31;56185;48.526;9.044;2023-12-20T17:12:22;5.20;79.00
69084;SHT31;56185;48.526;9.044;2023-12-20T17:14:48;5.23;78.52
69084;SHT31;56185;48.526;9.044;2023-12-20T17:17:13;5.15;78.75
69084;SHT31;56185;48.526;9.044;2023-12-20T17:19:38;5.14;78.58
69084;SHT31;56185;48.526;9.044;2023-12-20T17:22:03;5.18;78.88
69084;SHT31;56185;48.526;9.044;2023-12-20T17:24:29;5.14;78.57
69084;SHT31;56185;48.526;9.044;2023-12-20T17:26:54;5.15;78.99
69084;SHT31;56185;48.526;9.044;2023-12-20T17:29:19;5.28;78.45
69084;SHT31;56185;48.526;9.044;2023-12-20T17:31:45;5.13;79.34
69084;SHT31;56185;48.526;9.044;2023-12-20T17:34:10;5.10;78.81
69084;SHT31;56185;48.526;9.044;2023-12-20T17:36:35;5.18;79.09
69084;SHT31;56185;48.526;9.044;2023-12-20T17:39:01;5.20;79.00
69084;SHT31;56185;48.526;9.044;2023-12-20T17:41:26;5.17;78.40
69084;SHT31;56185;48.526;9.044;2023-12-20T17:43:51;5.13;79.12
69084;SHT31;56185;48.526;9.044;2023-12-20T17:46:16;5.13;79.50
69084;SHT31;56185;48.526;9.044;2023-12-20T17:48:42;5.10;79.28
69084;SHT31;56185;48.526;9.044;2023-12-20T17:51:07;5.04;79.26
69084;SHT31;56185;48.526;9.044;2023-12-20T17:53:32;5.04;79.28
69084;SHT31;56185;48.526;9.044;2023-12-20T17:55:57;5.05;79.61
69084;SHT31;56185;48.526;9.044;2023-12-20T17:58:22;5.11;79.32
69084;SHT31;56185;48.526;9.044;2023-12-20T18:00:48;5.04;79.22
69084;SHT31;56185;48.526;9.044;2023-12-20T18:03:13;4.96;79.77
69084;SHT31;56185;48.526;9.044;2023-12-20T18:05:38;5.00;79.57
69084;SHT31;56185;48.526;9.044;2023-12-20T18:08:04;5.08;79.28
69084;SHT31;56185;48.526;9.044;2023-12-20T18:10:29;5.07;79.58
69084;SHT31;56185;48.526;9.044;2023-12-20T18:12:54;5.15;79.61
69084;SHT31;56185;48.526;9.044;2023-12-20T18:15:20;5.24;78.93
69084;SHT31;56185;48.526;9.044;2023-12-20T18:17:45;5.24;78.50
69084;SHT31;56185;48.526;9.044;2023-12-20T18:20:10;5.11;79.33
69084;SHT31;56185;48.526;9.044;2023-12-20T18:22:35;5.15;78.96
69084;SHT31;56185;48.526;9.044;2023-12-20T18:25:01;5.15;78.71
69084;SHT31;56185;48.526;9.044;2023-12-20T18:27:26;5.27;79.27
69084;SHT31;56185;48.526;9.044;2023-12-20T18:29:52;5.13;78.71
69084;SHT31;56185;48.526;9.044;2023-12-20T18:32:17;5.20;78.67
69084;SHT31;56185;48.526;9.044;2023-12-20T18:34:43;5.14;79.40
69084;SHT31;56185;48.526;9.044;2023-12-20T18:37:08;5.18;79.15
69084;SHT31;56185;48.526;9.044;2023-12-20T18:39:33;5.23;78.86
69084;SHT31;56185;48.526;9.044;2023-12-20T18:41:59;5.27;79.16
69084;SHT31;56185;48.526;9.044;2023-12-20T18:44:29;5.10;78.63
69084;SHT31;56185;48.526;9.044;2023-12-20T18:46:55;5.17;78.64
69084;SHT31;56185;48.526;9.044;2023-12-20T18:49:21;5.05;78.72
69084;SHT31;56185;48.526;9.044;2023-12-20T18:51:46;5.15;79.11
69084;SHT31;56185;48.526;9.044;2023-12-20T18:54:24;5.24;79.25
69084;SHT31;56185;48.526;9.044;2023-12-20T18:56:49;5.21;79.04
69084;SHT31;56185;48.526;9.044;2023-12-20T18:59:15;5.35;78.27
69084;SHT31;56185;48.526;9.044;2023-12-20T19:01:40;5.23;77.96
69084;SHT31;56185;48.526;9.044;2023-12-20T19:04:06;5.30;78.39
69084;SHT31;56185;48.526;9.044;2023-12-20T19:06:31;5.23;78.01
69084;SHT31;56185;48.526;9.044;2023-12-20T19:08:56;5.31;77.60
69084;SHT31;56185;48.526;9.044;2023-12-20T19:11:21;5.27;77.72
69084;SHT31;56185;48.526;9.044;2023-12-20T19:13:46;5.27;78.41
69084;SHT31;56185;48.526;9.044;2023-12-20T19:16:12;5.30;77.19
69084;SHT31;56185;48.526;9.044;2023-12-20T19:18:37;5.23;77.84
69084;SHT31;56185;48.526;9.044;2023-12-20T19:21:03;5.24;77.49
69084;SHT31;56185;48.526;9.044;2023-12-20T19:23:28;5.35;77.88
69084;SHT31;56185;48.526;9.044;2023-12-20T19:25:53;5.21;77.58
69084;SHT31;56185;48.526;9.044;2023-12-20T19:28:19;5.21;77.33
69084;SHT31;56185;48.526;9.044;2023-12-20T19:30:44;5.28;77.34
69084;SHT31;56185;48.526;9.044;2023-12-20T19:33:09;5.25;77.04
69084;SHT31;56185;48.526;9.044;2023-12-20T19:35:34;5.28;76.80
69084;SHT31;56185;48.526;9.044;2023-12-20T19:38:00;5.31;76.86
69084;SHT31;56185;48.526;9.044;2023-12-20T19:40:25;5.35;77.24
69084;SHT31;56185;48.526;9.044;2023-12-20T19:42:50;5.39;76.90
69084;SHT31;56185;48.526;9.044;2023-12-20T19:45:15;5.39;76.38
69084;SHT31;56185;48.526;9.044;2023-12-20T19:47:47;5.28;76.58
69084;SHT31;56185;48.526;9.044;2023-12-20T19:50:13;5.32;77.20
69084;SHT31;56185;48.526;9.044;2023-12-20T19:52:38;5.25;76.93
69084;SHT31;56185;48.526;9.044;2023-12-20T19:55:03;5.27;77.33
69084;SHT31;56185;48.526;9.044;2023-12-20T19:57:29;5.32;77.38
69084;SHT31;56185;48.526;9.044;2023-12-20T19:59:54;5.21;78.25
69084;SHT31;56185;48.526;9.044;2023-12-20T20:02:22;5.24;78.05
69084;SHT31;56185;48.526;9.044;2023-12-20T20:04:47;5.14;78.80
69084;SHT31;56185;48.526;9.044;2023-12-20T20:07:13;5.15;79.05
69084;SHT31;56185;48.526;9.044;2023-12-20T20:09:38;5.20;78.37
69084;SHT31;56185;48.526;9.044;2023-12-20T20:12:03;5.25;78.82
69084;SHT31;56185;48.526;9.044;2023-12-20T20:14:29;5.11;78.86
69084;SHT31;56185;48.526;9.044;2023-12-20T20:16:54;5.04;78.39
69084;SHT31;56185;48.526;9.044;2023-12-20T20:19:19;5.21;78.65
69084;SHT31;56185;48.526;9.044;2023-12-20T20:21:44;5.25;79.08
69084;SHT31;56185;48.526;9.044;2023-12-20T20:24:10;5.14;78.78
69084;SHT31;56185;48.526;9.044;2023-12-20T20:26:35;5.10;78.70
69084;SHT31;56185;48.526;9.044;2023-12-20T20:29:00;5.07;78.65
69084;SHT31;56185;48.526;9.044;2023-12-20T20:31:25;5.01;78.69
69084;SHT31;56185;48.526;9.044;2023-12-20T20:33:51;5.05;79.02
69084;SHT31;56185;48.526;9.044;2023-12-20T20:36:16;4.97;78.25
69084;SHT31;56185;48.526;9.044;2023-12-20T20:38:41;5.04;78.97
69084;SHT31;56185;48.526;9.044;2023-12-20T20:41:06;5.04;78.57
69084;SHT31;56185;48.526;9.044;2023-12-20T20:43:31;5.04;78.98
69084;SHT31;56185;48.526;9.044;2023-12-20T20:45:57;5.00;78.93
69084;SHT31;56185;48.526;9.044;2023-12-20T20:48:22;5.10;78.82
69084;SHT31;56185;48.526;9.044;2023-12-20T20:50:47;5.14;78.50
69084;SHT31;56185;48.526;9.044;2023-12-20T20:53:12;5.11;78.48
69084;SHT31;56185;48.526;9.044;2023-12-20T20:55:41;5.05;78.47
69084;SHT31;56185;48.526;9.044;2023-12-20T20:58:06;5.15;78.93
69084;SHT31;56185;48.526;9.044;2023-12-20T21:00:31;5.14;79.05
69084;SHT31;56185;48.526;9.044;2023-12-20T21:02:56;5.17;79.08
69084;SHT31;56185;48.526;9.044;2023-12-20T21:05:21;5.15;78.22
69084;SHT31;56185;48.526;9.044;2023-12-20T21:07:47;5.08;78.69
69084;SHT31;56185;48.526;9.044;2023-12-20T21:10:12;5.14;79.06
69084;SHT31;56185;48.526;9.044;2023-12-20T21:12:37;5.14;79.16
69084;SHT31;56185;48.526;9.044;2023-12-20T21:15:03;5.08;79.05
69084;SHT31;56185;48.526;9.044;2023-12-20T21:17:28;5.13;79.06
69084;SHT31;56185;48.526;9.044;2023-12-20T21:19:53;5.03;79.14
69084;SHT31;56185;48.526;9.044;2023-12-20T21:22:19;5.14;79.60
69084;SHT31;56185;48.526;9.044;2023-12-20T21:24:44;5.17;78.88
69084;SHT31;56185;48.526;9.044;2023-12-20T21:27:09;5.10;78.98
69084;SHT31;56185;48.526;9.044;2023-12-20T21:29:34;5.17;78.79
69084;SHT31;56185;48.526;9.044;2023-12-20T21:32:00;5.21;79.01
69084;SHT31;56185;48.526;9.044;2023-12-20T21:34:25;5.20;79.29
69084;SHT31;56185;48.526;9.044;2023-12-20T21:36:50;5.21;78.73
69084;SHT31;56185;48.526;9.044;2023-12-20T21:39:15;5.32;78.65
69084;SHT31;56185;48.526;9.044;2023-12-20T21:41:40;5.30;79.01
69084;SHT31;56185;48.526;9.044;2023-12-20T21:44:06;5.24;79.02
69084;SHT31;56185;48.526;9.044;2023-12-20T21:46:31;5.20;78.55
69084;SHT31;56185;48.526;9.044;2023-12-20T21:48:56;5.24;78.86
69084;SHT31;56185;48.526;9.044;2023-12-20T21:51:21;5.27;78.62
69084;SHT31;56185;48.526;9.044;2023-12-20T21:53:47;5.17;79.08
69084;SHT31;56185;48.526;9.044;2023-12-20T21:56:12;5.18;79.30
69084;SHT31;56185;48.526;9.044;2023-12-20T21:58:37;5.15;79.27
69084;SHT31;56185;48.526;9.044;2023-12-20T22:01:05;5.11;80.00
69084;SHT31;56185;48.526;9.044;2023-12-20T22:03:31;5.21;79.00
69084;SHT31;56185;48.526;9.044;2023-12-20T22:05:56;5.15;79.13
69084;SHT31;56185;48.526;9.044;2023-12-20T22:08:21;5.25;79.17
69084;SHT31;56185;48.526;9.044;2023-12-20T22:10:48;5.20;79.36
69084;SHT31;56185;48.526;9.044;2023-12-20T22:13:13;5.23;78.54
69084;SHT31;56185;48.526;9.044;2023-12-20T22:15:38;5.25;78.56
69084;SHT31;56185;48.526;9.044;2023-12-20T22:18:04;5.23;78.53
69084;SHT31;56185;48.526;9.044;2023-12-20T22:20:29;5.17;78.83
69084;SHT31;56185;48.526;9.044;2023-12-20T22:22:54;5.28;78.69
69084;SHT31;56185;48.526;9.044;2023-12-20T22:25:19;5.21;78.45
69084;SHT31;56185;48.526;9.044;2023-12-20T22:27:45;5.23;78.63
69084;SHT31;56185;48.526;9.044;2023-12-20T22:30:11;5.31;78.10
69084;SHT31;56185;48.526;9.044;2023-12-20T22:32:36;5.32;78.65
69084;SHT31;56185;48.526;9.044;2023-12-20T22:35:01;5.28;78.40
69084;SHT31;56185;48.526;9.044;2023-12-20T22:37:27;5.32;78.76
69084;SHT31;56185;48.526;9.044;2023-12-20T22:39:57;5.30;78.62
69084;SHT31;56185;48.526;9.044;2023-12-20T22:42:23;5.28;78.68
69084;SHT31;56185;48.526;9.044;2023-12-20T22:44:48;5.32;78.20
69084;SHT31;56185;48.526;9.044;2023-12-20T22:47:13;5.14;78.65
69084;SHT31;56185;48.526;9.044;2023-12-20T22:49:39;5.20;78.91
69084;SHT31;56185;48.526;9.044;2023-12-20T22:52:04;5.23;78.70
69084;SHT31;56185;48.526;9.044;2023-12-20T22:54:29;5.27;79.07
69084;SHT31;56185;48.526;9.044;2023-12-20T22:56:55;5.24;78.53
69084;SHT31;56185;48.526;9.044;2023-12-20T22:59:20;5.20;79.02
69084;SHT31;56185;48.526;9.044;2023-12-20T23:01:45;5.18;78.92
69084;SHT31;56185;48.526;9.044;2023-12-20T23:04:11;5.23;78.82
69084;SHT31;56185;48.526;9.044;2023-12-20T23:06:36;5.31;79.12
69084;SHT31;56185;48.526;9.044;2023-12-20T23:09:04;5.23;79.22
69084;SHT31;56185;48.526;9.044;2023-12-20T23:11:29;5.28;78.69
69084;SHT31;56185;48.526;9.044;2023-12-20T23:13:57;5.28;78.75
69084;SHT31;56185;48.526;9.044;2023-12-20T23:16:22;5.27;78.93
69084;SHT31;56185;48.526;9.044;2023-12-20T23:18:48;5.31;78.77
69084;SHT31;56185;48.526;9.044;2023-12-20T23:21:14;5.28;78.70
69084;SHT31;56185;48.526;9.044;2023-12-20T23:23:39;5.32;78.72
69084;SHT31;56185;48.526;9.044;2023-12-20T23:26:04;5.25;78.85
69084;SHT31;56185;48.526;9.044;2023-12-20T23:28:29;5.32;78.73
69084;SHT31;56185;48.526;9.044;2023-12-20T23:30:55;5.30;78.69
69084;SHT31;56185;48.526;9.044;2023-12-20T23:33:20;5.31;78.54
69084;SHT31;56185;48.526;9.044;2023-12-20T23:35:45;5.21;79.13
69084;SHT31;56185;48.526;9.044;2023-12-20T23:38:10;5.24;78.60
69084;SHT31;56185;48.526;9.044;2023-12-20T23:40:36;5.21;79.44
69084;SHT31;56185;48.526;9.044;2023-12-20T23:43:01;5.21;78.82
69084;SHT31;56185;48.526;9.044;2023-12-20T23:45:26;5.20;78.77
69084;SHT31;56185;48.526;9.044;2023-12-20T23:47:51;5.23;78.75
69084;SHT31;56185;48.526;9.044;2023-12-20T23:50:17;5.24;78.53
69084;SHT31;56185;48.526;9.044;2023-12-20T23:52:42;5.30;78.64
69084;SHT31;56185;48.526;9.044;2023-12-20T23:55:07;5.31;78.71
69084;SHT31;56185;48.526;9.044;2023-12-20T23:57:33;5.31;78.52
69084;SHT31;56185;48.526;9.044;2023-12-20T23:59:58;5.27;79.14
